sensor_id;sensor_type;location;lat;lon;timestamp;temperature;humidity
11152;DHT22;5630;49.342;10.802;2024-01-10T00:01:30;-3.80;99.90
11152;DHT22;5630;49.342;10.802;2024-01-10T00:03:55;-3.80;99.90
11152;DHT22;5630;49.342;10.802;2024-01-10T00:06:21;-3.90;99.90
11152;DHT22;5630;49.342;10.802;2024-01-10T00:08:48;-3.90;99.90
11152;DHT22;5630;49.342;10.802;2024-01-10T00:11:14;-3.90;99.90
11152;DHT22;5630;49.342;10.802;2024-01-10T00:13:39;-3.90;99.90
11152;DHT22;5630;49.342;10.802;2024-01-10T00:16:05;-4.00;99.90
11152;DHT22;5630;49.342;10.802;2024-01-10T00:18:31;-4.00;99.90
11152;DHT22;5630;49.342;10.802;2024-01-10T00:20:57;-4.10;99.90
11152;DHT22;5630;49.342;10.802;2024-01-10T00:23:23;-4.10;99.90
11152;DHT22;5630;49.342;10.802;2024-01-10T00:25:49;-4.10;99.90
11152;DHT22;5630;49.342;10.802;2024-01-10T00:28:15;-4.10;99.90
11152;DHT22;5630;49.342;10.802;2024-01-10T00:30:44;-4.20;99.90
11152;DHT22;5630;49.342;10.802;2024-01-10T00:33:10;-4.20;99.90
11152;DHT22;5630;49.342;10.802;2024-01-10T00:35:37;-4.20;99.90
11152;DHT22;5630;49.342;10.802;2024-01-10T00:38:02;-4.30;99.90
11152;DHT22;5630;49.342;10.802;2024-01-10T00:40:28;-4.30;99.90
11152;DHT22;5630;49.342;10.802;2024-01-10T00:42:54;-4.30;99.90
11152;DHT22;5630;49.342;10.802;2024-01-10T00:45:19;-4.30;99.90
11152;DHT22;5630;49.342;10.802;2024-01-10T00:47:45;-4.20;99.90
11152;DHT22;5630;49.342;10.802;2024-01-10T00:50:11;-4.30;99.90
11152;DHT22;5630;49.342;10.802;2024-01-10T00:52:37;-4.40;99.90
11152;DHT22;5630;49.342;10.802;2024-01-10T00:55:02;-4.40;99.90
11152;DHT22;5630;49.342;10.802;2024-01-10T00:57:28;-4.40;99.90
11152;DHT22;5630;49.342;10.802;2024-01-10T00:59:53;-4.40;99.90
11152;DHT22;5630;49.342;10.802;2024-01-10T01:02:19;-4.30;99.90
11152;DHT22;5630;49.342;10.802;2024-01-10T01:04:44;-4.30;99.90
11152;DHT22;5630;49.342;10.802;2024-01-10T01:07:10;-4.30;99.90
11152;DHT22;5630;49.342;10.802;2024-01-10T01:09:36;-4.10;99.90
11152;DHT22;5630;49.342;10.802;2024-01-10T01:12:01;-4.10;99.90
11152;DHT22;5630;49.342;10.802;2024-01-10T01:14:27;-4.10;99.90
11152;DHT22;5630;49.342;10.802;2024-01-10T01:16:52;-4.10;99.90
11152;DHT22;5630;49.342;10.802;2024-01-10T01:19:18;-4.00;99.90
11152;DHT22;5630;49.342;10.802;2024-01-10T01:21:43;-4.00;99.90
11152;DHT22;5630;49.342;10.802;2024-01-10T01:24:09;-4.10;99.90
11152;DHT22;5630;49.342;10.802;2024-01-10T01:26:35;-4.10;99.90
11152;DHT22;5630;49.342;10.802;2024-01-10T01:29:00;-4.20;99.90
11152;DHT22;5630;49.342;10.802;2024-01-10T01:31:26;-4.10;99.90
11152;DHT22;5630;49.342;10.802;2024-01-10T01:33:51;-4.00;99.90
11152;DHT22;5630;49.342;10.802;2024-01-10T01:36:17;-4.00;99.90
11152;DHT22;5630;49.342;10.802;2024-01-10T01:38:43;-3.90;99.90
11152;DHT22;5630;49.342;10.802;2024-01-10T01:41:09;-3.80;99.90
11152;DHT22;5630;49.342;10.802;2024-01-10T01:43:34;-3.80;99.90
11152;DHT22;5630;49.342;10.802;2024-01-10T01:46:01;-3.80;99.90
11152;DHT22;5630;49.342;10.802;2024-01-10T01:48:27;-3.80;99.90
11152;DHT22;5630;49.342;10.802;2024-01-10T01:50:58;-3.80;99.90
11152;DHT22;5630;49.342;10.802;2024-01-10T01:53:25;-3.80;99.90
11152;DHT22;5630;49.342;10.802;2024-01-10T01:55:52;-3.70;99.90
11152;DHT22;5630;49.342;10.802;2024-01-10T01:58:19;-3.70;99.90
11152;DHT22;5630;49.342;10.802;2024-01-10T02:00:46;-3.80;99.90
11152;DHT22;5630;49.342;10.802;2024-01-10T02:03:11;-3.80;99.90
11152;DHT22;5630;49.342;10.802;2024-01-10T02:05:37;-3.80;99.90
11152;DHT22;5630;49.342;10.802;2024-01-10T02:08:03;-3.80;99.90
11152;DHT22;5630;49.342;10.802;2024-01-10T02:10:29;-3.80;99.90
11152;DHT22;5630;49.342;10.802;2024-01-10T02:12:55;-3.80;99.90
11152;DHT22;5630;49.342;10.802;2024-01-10T02:15:21;-3.80;99.90
11152;DHT22;5630;49.342;10.802;2024-01-10T02:17:46;-3.80;99.90
11152;DHT22;5630;49.342;10.802;2024-01-10T02:20:13;-3.80;99.90
11152;DHT22;5630;49.342;10.802;2024-01-10T02:22:39;-3.80;99.90
11152;DHT22;5630;49.342;10.802;2024-01-10T02:25:09;-3.80;99.90
11152;DHT22;5630;49.342;10.802;2024-01-10T02:27:39;-3.80;99.90
11152;DHT22;5630;49.342;10.802;2024-01-10T02:30:05;-3.80;99.90
11152;DHT22;5630;49.342;10.802;2024-01-10T02:32:31;-3.80;99.90
11152;DHT22;5630;49.342;10.802;2024-01-10T02:34:57;-3.90;99.90
11152;DHT22;5630;49.342;10.802;2024-01-10T02:37:23;-3.90;99.90
11152;DHT22;5630;49.342;10.802;2024-01-10T02:39:49;-3.90;99.90
11152;DHT22;5630;49.342;10.802;2024-01-10T02:42:16;-3.90;99.90
11152;DHT22;5630;49.342;10.802;2024-01-10T02:44:42;-3.90;99.90
11152;DHT22;5630;49.342;10.802;2024-01-10T02:47:08;-3.90;99.90
11152;DHT22;5630;49.342;10.802;2024-01-10T02:49:34;-3.90;99.90
11152;DHT22;5630;49.342;10.802;2024-01-10T02:51:59;-3.90;99.90
11152;DHT22;5630;49.342;10.802;2024-01-10T02:54:25;-3.90;99.90
11152;DHT22;5630;49.342;10.802;2024-01-10T02:56:51;-3.90;99.90
11152;DHT22;5630;49.342;10.802;2024-01-10T02:59:17;-3.80;99.90
11152;DHT22;5630;49.342;10.802;2024-01-10T03:01:42;-3.80;99.90
11152;DHT22;5630;49.342;10.802;2024-01-10T03:04:08;-3.80;99.90
11152;DHT22;5630;49.342;10.802;2024-01-10T03:06:34;-3.80;99.90
11152;DHT22;5630;49.342;10.802;2024-01-10T03:08:59;-3.80;99.90
11152;DHT22;5630;49.342;10.802;2024-01-10T03:11:25;-3.90;99.90
11152;DHT22;5630;49.342;10.802;2024-01-10T03:14:00;-3.90;99.90
11152;DHT22;5630;49.342;10.802;2024-01-10T03:16:26;-3.90;99.90
11152;DHT22;5630;49.342;10.802;2024-01-10T03:18:51;-3.90;99.90
11152;DHT22;5630;49.342;10.802;2024-01-10T03:21:17;-3.90;99.90
11152;DHT22;5630;49.342;10.802;2024-01-10T03:23:50;-3.90;99.90
11152;DHT22;5630;49.342;10.802;2024-01-10T03:26:16;-3.90;99.90
11152;DHT22;5630;49.342;10.802;2024-01-10T03:28:41;-4.00;99.90
11152;DHT22;5630;49.342;10.802;2024-01-10T03:31:07;-4.00;99.90
11152;DHT22;5630;49.342;10.802;2024-01-10T03:33:32;-4.00;99.90
11152;DHT22;5630;49.342;10.802;2024-01-10T03:35:58;-4.10;99.90
11152;DHT22;5630;49.342;10.802;2024-01-10T03:38:24;-4.10;99.90
11152;DHT22;5630;49.342;10.802;2024-01-10T03:40:49;-4.10;99.90
11152;DHT22;5630;49.342;10.802;2024-01-10T03:43:15;-4.10;99.90
11152;DHT22;5630;49.342;10.802;2024-01-10T03:45:42;-4.20;99.90
11152;DHT22;5630;49.342;10.802;2024-01-10T03:48:07;-4.10;99.90
11152;DHT22;5630;49.342;10.802;2024-01-10T03:50:33;-4.20;99.90
11152;DHT22;5630;49.342;10.802;2024-01-10T03:52:59;-4.20;99.90
11152;DHT22;5630;49.342;10.802;2024-01-10T03:55:24;-4.20;99.90
11152;DHT22;5630;49.342;10.802;2024-01-10T03:57:50;-4.20;99.90
11152;DHT22;5630;49.342;10.802;2024-01-10T04:00:16;-4.20;99.90
11152;DHT22;5630;49.342;10.802;2024-01-10T04:02:42;-4.30;99.90
11152;DHT22;5630;49.342;10.802;2024-01-10T04:05:08;-4.30;99.90
11152;DHT22;5630;49.342;10.802;2024-01-10T04:07:40;-4.30;99.90
11152;DHT22;5630;49.342;10.802;2024-01-10T04:10:07;-4.30;99.90
11152;DHT22;5630;49.342;10.802;2024-01-10T04:12:36;-4.30;99.90
11152;DHT22;5630;49.342;10.802;2024-01-10T04:15:03;-4.30;99.90
11152;DHT22;5630;49.342;10.802;2024-01-10T04:17:29;-4.30;99.90
11152;DHT22;5630;49.342;10.802;2024-01-10T04:19:55;-4.40;99.90
11152;DHT22;5630;49.342;10.802;2024-01-10T04:22:20;-4.40;99.90
11152;DHT22;5630;49.342;10.802;2024-01-10T04:24:46;-4.40;99.90
11152;DHT22;5630;49.342;10.802;2024-01-10T04:27:11;-4.40;99.90
11152;DHT22;5630;49.342;10.802;2024-01-10T04:29:37;-4.40;99.90
11152;DHT22;5630;49.342;10.802;2024-01-10T04:32:03;-4.40;99.90
11152;DHT22;5630;49.342;10.802;2024-01-10T04:34:29;-4.40;99.90
11152;DHT22;5630;49.342;10.802;2024-01-10T04:36:55;-4.40;99.90
11152;DHT22;5630;49.342;10.802;2024-01-10T04:39:20;-4.50;99.90
11152;DHT22;5630;49.342;10.802;2024-01-10T04:41:46;-4.50;99.90
11152;DHT22;5630;49.342;10.802;2024-01-10T04:44:11;-4.50;99.90
11152;DHT22;5630;49.342;10.802;2024-01-10T04:46:37;-4.50;99.90
11152;DHT22;5630;49.342;10.802;2024-01-10T04:49:02;-4.50;99.90
11152;DHT22;5630;49.342;10.802;2024-01-10T04:51:28;-4.50;99.90
11152;DHT22;5630;49.342;10.802;2024-01-10T04:53:54;-4.50;99.90
11152;DHT22;5630;49.342;10.802;2024-01-10T04:58:47;-4.60;99.90
11152;DHT22;5630;49.342;10.802;2024-01-10T05:01:13;-4.60;99.90
11152;DHT22;5630;49.342;10.802;2024-01-10T05:03:38;-4.60;99.90
11152;DHT22;5630;49.342;10.802;2024-01-10T05:06:04;-4.60;99.90
11152;DHT22;5630;49.342;10.802;2024-01-10T05:08:30;-4.60;99.90
11152;DHT22;5630;49.342;10.802;2024-01-10T05:10:56;-4.60;99.90
11152;DHT22;5630;49.342;10.802;2024-01-10T05:13:21;-4.60;99.90
11152;DHT22;5630;49.342;10.802;2024-01-10T05:15:47;-4.60;99.90
11152;DHT22;5630;49.342;10.802;2024-01-10T05:18:12;-4.60;99.90
11152;DHT22;5630;49.342;10.802;2024-01-10T05:20:38;-4.60;99.90
11152;DHT22;5630;49.342;10.802;2024-01-10T05:23:04;-4.70;99.90
11152;DHT22;5630;49.342;10.802;2024-01-10T05:25:30;-4.60;99.90
11152;DHT22;5630;49.342;10.802;2024-01-10T05:27:56;-4.70;99.90
11152;DHT22;5630;49.342;10.802;2024-01-10T05:30:21;-4.60;99.90
11152;DHT22;5630;49.342;10.802;2024-01-10T05:32:47;-4.70;99.90
11152;DHT22;5630;49.342;10.802;2024-01-10T05:35:12;-4.60;99.90
11152;DHT22;5630;49.342;10.802;2024-01-10T05:37:38;-4.70;99.90
11152;DHT22;5630;49.342;10.802;2024-01-10T05:40:04;-4.60;99.90
11152;DHT22;5630;49.342;10.802;2024-01-10T05:42:31;-4.70;99.90
11152;DHT22;5630;49.342;10.802;2024-01-10T05:45:00;-4.70;99.90
11152;DHT22;5630;49.342;10.802;2024-01-10T05:47:27;-4.70;99.90
11152;DHT22;5630;49.342;10.802;2024-01-10T05:49:53;-4.80;99.90
11152;DHT22;5630;49.342;10.802;2024-01-10T05:52:19;-4.70;99.90
11152;DHT22;5630;49.342;10.802;2024-01-10T05:54:46;-4.70;99.90
11152;DHT22;5630;49.342;10.802;2024-01-10T05:57:14;-4.70;99.90
11152;DHT22;5630;49.342;10.802;2024-01-10T05:59:39;-4.60;99.90
11152;DHT22;5630;49.342;10.802;2024-01-10T06:02:05;-4.70;99.90
11152;DHT22;5630;49.342;10.802;2024-01-10T06:04:31;-4.70;99.90
11152;DHT22;5630;49.342;10.802;2024-01-10T06:07:00;-4.70;99.90
11152;DHT22;5630;49.342;10.802;2024-01-10T06:09:25;-4.70;99.90
11152;DHT22;5630;49.342;10.802;2024-01-10T06:11:51;-4.70;99.90
11152;DHT22;5630;49.342;10.802;2024-01-10T06:14:17;-4.30;99.90
11152;DHT22;5630;49.342;10.802;2024-01-10T06:16:43;-4.30;99.90
11152;DHT22;5630;49.342;10.802;2024-01-10T06:19:10;-4.30;99.90
11152;DHT22;5630;49.342;10.802;2024-01-10T06:21:36;-4.20;99.90
11152;DHT22;5630;49.342;10.802;2024-01-10T06:24:02;-4.20;99.90
11152;DHT22;5630;49.342;10.802;2024-01-10T06:26:28;-4.20;99.90
11152;DHT22;5630;49.342;10.802;2024-01-10T06:28:53;-4.10;99.90
11152;DHT22;5630;49.342;10.802;2024-01-10T06:31:19;-4.20;99.90
11152;DHT22;5630;49.342;10.802;2024-01-10T06:33:45;-4.20;99.90
11152;DHT22;5630;49.342;10.802;2024-01-10T06:36:11;-4.20;99.90
11152;DHT22;5630;49.342;10.802;2024-01-10T06:38:39;-4.20;99.90
11152;DHT22;5630;49.342;10.802;2024-01-10T06:41:11;-4.10;99.90
11152;DHT22;5630;49.342;10.802;2024-01-10T06:43:39;-4.10;99.90
11152;DHT22;5630;49.342;10.802;2024-01-10T06:46:05;-4.10;99.90
11152;DHT22;5630;49.342;10.802;2024-01-10T06:48:31;-4.10;99.90
11152;DHT22;5630;49.342;10.802;2024-01-10T06:50:57;-4.10;99.90
11152;DHT22;5630;49.342;10.802;2024-01-10T06:53:23;-4.00;99.90
11152;DHT22;5630;49.342;10.802;2024-01-10T06:55:49;-4.10;99.90
11152;DHT22;5630;49.342;10.802;2024-01-10T06:58:15;-4.00;99.90
11152;DHT22;5630;49.342;10.802;2024-01-10T07:00:40;-4.10;99.90
11152;DHT22;5630;49.342;10.802;2024-01-10T07:03:07;-4.10;99.90
11152;DHT22;5630;49.342;10.802;2024-01-10T07:05:32;-4.10;99.90
11152;DHT22;5630;49.342;10.802;2024-01-10T07:07:58;-4.10;99.90
11152;DHT22;5630;49.342;10.802;2024-01-10T07:10:24;-4.10;99.90
11152;DHT22;5630;49.342;10.802;2024-01-10T07:12:54;-3.20;99.90
11152;DHT22;5630;49.342;10.802;2024-01-10T07:15:20;0.70;99.90
11152;DHT22;5630;49.342;10.802;2024-01-10T07:17:45;3.00;99.90
11152;DHT22;5630;49.342;10.802;2024-01-10T07:20:11;1.30;99.90
11152;DHT22;5630;49.342;10.802;2024-01-10T07:22:38;0.30;99.90
11152;DHT22;5630;49.342;10.802;2024-01-10T07:25:07;-0.60;99.90
11152;DHT22;5630;49.342;10.802;2024-01-10T07:27:34;-1.30;99.90
11152;DHT22;5630;49.342;10.802;2024-01-10T07:30:00;-1.80;99.90
11152;DHT22;5630;49.342;10.802;2024-01-10T07:32:25;-2.30;99.90
11152;DHT22;5630;49.342;10.802;2024-01-10T07:34:51;-2.70;99.90
11152;DHT22;5630;49.342;10.802;2024-01-10T07:37:16;-3.00;99.90
11152;DHT22;5630;49.342;10.802;2024-01-10T07:39:46;-3.20;99.90
11152;DHT22;5630;49.342;10.802;2024-01-10T07:42:12;-3.40;99.90
11152;DHT22;5630;49.342;10.802;2024-01-10T07:44:37;-3.60;99.90
11152;DHT22;5630;49.342;10.802;2024-01-10T07:47:03;-3.70;99.90
11152;DHT22;5630;49.342;10.802;2024-01-10T07:49:29;-3.80;99.90
11152;DHT22;5630;49.342;10.802;2024-01-10T07:51:56;-3.90;99.90
11152;DHT22;5630;49.342;10.802;2024-01-10T07:54:22;-3.90;99.90
11152;DHT22;5630;49.342;10.802;2024-01-10T07:56:48;-4.00;99.90
11152;DHT22;5630;49.342;10.802;2024-01-10T07:59:13;-4.10;99.90
11152;DHT22;5630;49.342;10.802;2024-01-10T08:01:43;-4.10;99.90
11152;DHT22;5630;49.342;10.802;2024-01-10T08:04:10;-4.10;99.90
11152;DHT22;5630;49.342;10.802;2024-01-10T08:06:36;-4.10;99.90
11152;DHT22;5630;49.342;10.802;2024-01-10T08:09:02;-4.00;99.90
11152;DHT22;5630;49.342;10.802;2024-01-10T08:11:29;-4.00;99.90
11152;DHT22;5630;49.342;10.802;2024-01-10T08:13:55;-4.00;99.90
11152;DHT22;5630;49.342;10.802;2024-01-10T08:16:21;-3.90;99.90
11152;DHT22;5630;49.342;10.802;2024-01-10T08:18:46;-3.80;99.90
11152;DHT22;5630;49.342;10.802;2024-01-10T08:21:12;-3.80;99.90
11152;DHT22;5630;49.342;10.802;2024-01-10T08:23:37;-3.70;99.90
11152;DHT22;5630;49.342;10.802;2024-01-10T08:26:06;-3.70;99.90
11152;DHT22;5630;49.342;10.802;2024-01-10T08:28:33;-3.60;99.90
11152;DHT22;5630;49.342;10.802;2024-01-10T08:30:59;-3.60;99.90
11152;DHT22;5630;49.342;10.802;2024-01-10T08:33:24;-3.50;99.90
11152;DHT22;5630;49.342;10.802;2024-01-10T08:35:50;-3.50;99.90
11152;DHT22;5630;49.342;10.802;2024-01-10T08:38:16;-3.40;99.90
11152;DHT22;5630;49.342;10.802;2024-01-10T08:40:42;-3.30;99.90
11152;DHT22;5630;49.342;10.802;2024-01-10T08:43:07;-3.30;99.90
11152;DHT22;5630;49.342;10.802;2024-01-10T08:45:33;-3.30;99.90
11152;DHT22;5630;49.342;10.802;2024-01-10T08:47:58;-3.20;99.90
11152;DHT22;5630;49.342;10.802;2024-01-10T08:50:24;-3.10;99.90
11152;DHT22;5630;49.342;10.802;2024-01-10T08:52:50;-3.00;99.90
11152;DHT22;5630;49.342;10.802;2024-01-10T08:55:15;-3.00;99.90
11152;DHT22;5630;49.342;10.802;2024-01-10T08:57:41;-2.90;99.90
11152;DHT22;5630;49.342;10.802;2024-01-10T09:00:07;-2.90;99.90
11152;DHT22;5630;49.342;10.802;2024-01-10T09:02:37;-2.80;99.90
11152;DHT22;5630;49.342;10.802;2024-01-10T09:05:03;-2.70;99.90
11152;DHT22;5630;49.342;10.802;2024-01-10T09:07:29;-2.70;99.90
11152;DHT22;5630;49.342;10.802;2024-01-10T09:09:55;-2.80;99.90
11152;DHT22;5630;49.342;10.802;2024-01-10T09:12:21;-2.70;99.90
11152;DHT22;5630;49.342;10.802;2024-01-10T09:14:46;-2.70;99.90
11152;DHT22;5630;49.342;10.802;2024-01-10T09:17:12;-1.50;99.90
11152;DHT22;5630;49.342;10.802;2024-01-10T09:19:38;1.60;99.90
11152;DHT22;5630;49.342;10.802;2024-01-10T09:22:03;2.10;99.90
11152;DHT22;5630;49.342;10.802;2024-01-10T09:24:29;1.40;99.90
11152;DHT22;5630;49.342;10.802;2024-01-10T09:26:55;0.80;99.90
11152;DHT22;5630;49.342;10.802;2024-01-10T09:29:21;0.20;99.90
11152;DHT22;5630;49.342;10.802;2024-01-10T09:31:47;-0.20;99.90
11152;DHT22;5630;49.342;10.802;2024-01-10T09:34:12;-0.50;99.90
11152;DHT22;5630;49.342;10.802;2024-01-10T09:36:38;-0.80;99.90
11152;DHT22;5630;49.342;10.802;2024-01-10T09:39:03;-1.00;99.90
11152;DHT22;5630;49.342;10.802;2024-01-10T09:41:32;-1.10;99.90
11152;DHT22;5630;49.342;10.802;2024-01-10T09:44:01;-1.30;99.90
11152;DHT22;5630;49.342;10.802;2024-01-10T09:46:28;-1.30;99.90
11152;DHT22;5630;49.342;10.802;2024-01-10T09:48:55;-1.40;99.90
11152;DHT22;5630;49.342;10.802;2024-01-10T09:51:21;-1.30;99.90
11152;DHT22;5630;49.342;10.802;2024-01-10T09:53:48;-1.40;99.90
11152;DHT22;5630;49.342;10.802;2024-01-10T09:56:17;-1.30;99.90
11152;DHT22;5630;49.342;10.802;2024-01-10T09:58:45;-1.20;99.90
11152;DHT22;5630;49.342;10.802;2024-01-10T10:01:11;-1.20;99.90
11152;DHT22;5630;49.342;10.802;2024-01-10T10:03:37;-1.10;99.90
11152;DHT22;5630;49.342;10.802;2024-01-10T10:06:07;-1.00;99.90
11152;DHT22;5630;49.342;10.802;2024-01-10T10:08:33;-1.00;99.90
11152;DHT22;5630;49.342;10.802;2024-01-10T10:10:59;-1.10;99.90
11152;DHT22;5630;49.342;10.802;2024-01-10T10:13:26;-1.10;99.90
11152;DHT22;5630;49.342;10.802;2024-01-10T10:16:02;-1.00;99.90
11152;DHT22;5630;49.342;10.802;2024-01-10T10:18:29;-0.80;99.90
11152;DHT22;5630;49.342;10.802;2024-01-10T10:21:11;-0.70;99.90
11152;DHT22;5630;49.342;10.802;2024-01-10T10:23:39;-0.60;99.90
11152;DHT22;5630;49.342;10.802;2024-01-10T10:26:15;-0.40;99.90
11152;DHT22;5630;49.342;10.802;2024-01-10T10:28:48;-0.40;99.90
11152;DHT22;5630;49.342;10.802;2024-01-10T10:31:15;-0.50;99.90
11152;DHT22;5630;49.342;10.802;2024-01-10T10:33:42;-0.20;99.90
11152;DHT22;5630;49.342;10.802;2024-01-10T10:36:09;0.00;99.90
11152;DHT22;5630;49.342;10.802;2024-01-10T10:38:35;0.00;99.90
11152;DHT22;5630;49.342;10.802;2024-01-10T10:41:04;0.20;99.90
11152;DHT22;5630;49.342;10.802;2024-01-10T10:43:34;0.50;99.90
11152;DHT22;5630;49.342;10.802;2024-01-10T10:46:01;0.70;99.90
11152;DHT22;5630;49.342;10.802;2024-01-10T10:48:29;0.90;99.90
11152;DHT22;5630;49.342;10.802;2024-01-10T10:53:29;1.10;99.90
11152;DHT22;5630;49.342;10.802;2024-01-10T10:55:57;1.20;99.90
11152;DHT22;5630;49.342;10.802;2024-01-10T10:58:24;2.80;99.90
11152;DHT22;5630;49.342;10.802;2024-01-10T11:00:50;3.80;99.90
11152;DHT22;5630;49.342;10.802;2024-01-10T11:03:16;4.90;99.90
11152;DHT22;5630;49.342;10.802;2024-01-10T11:05:42;6.20;99.90
11152;DHT22;5630;49.342;10.802;2024-01-10T11:08:14;7.10;99.90
11152;DHT22;5630;49.342;10.802;2024-01-10T11:10:42;7.50;99.90
11152;DHT22;5630;49.342;10.802;2024-01-10T11:13:48;7.80;99.90
11152;DHT22;5630;49.342;10.802;2024-01-10T11:16:29;7.50;99.90
11152;DHT22;5630;49.342;10.802;2024-01-10T11:19:25;6.50;99.90
11152;DHT22;5630;49.342;10.802;2024-01-10T11:24:37;4.90;99.90
11152;DHT22;5630;49.342;10.802;2024-01-10T11:27:12;4.40;99.90
11152;DHT22;5630;49.342;10.802;2024-01-10T11:29:39;4.00;99.90
11152;DHT22;5630;49.342;10.802;2024-01-10T11:32:15;3.70;99.90
11152;DHT22;5630;49.342;10.802;2024-01-10T11:37:19;3.50;99.90
11152;DHT22;5630;49.342;10.802;2024-01-10T11:39:45;3.40;99.90
11152;DHT22;5630;49.342;10.802;2024-01-10T11:42:11;3.30;99.90
11152;DHT22;5630;49.342;10.802;2024-01-10T11:44:48;3.40;99.90
11152;DHT22;5630;49.342;10.802;2024-01-10T11:47:15;3.30;99.90
11152;DHT22;5630;49.342;10.802;2024-01-10T11:49:40;3.20;99.90
11152;DHT22;5630;49.342;10.802;2024-01-10T11:52:08;3.00;99.90
11152;DHT22;5630;49.342;10.802;2024-01-10T11:57:07;3.00;99.90
11152;DHT22;5630;49.342;10.802;2024-01-10T11:59:33;3.00;99.90
11152;DHT22;5630;49.342;10.802;2024-01-10T12:01:59;2.80;99.90
11152;DHT22;5630;49.342;10.802;2024-01-10T12:04:24;2.80;99.90
11152;DHT22;5630;49.342;10.802;2024-01-10T12:06:55;2.80;99.90
11152;DHT22;5630;49.342;10.802;2024-01-10T12:09:21;2.70;99.90
11152;DHT22;5630;49.342;10.802;2024-01-10T12:11:47;2.70;99.90
11152;DHT22;5630;49.342;10.802;2024-01-10T12:14:14;2.70;99.90
11152;DHT22;5630;49.342;10.802;2024-01-10T12:16:40;2.70;99.90
11152;DHT22;5630;49.342;10.802;2024-01-10T12:19:06;2.60;99.90
11152;DHT22;5630;49.342;10.802;2024-01-10T12:21:32;2.60;99.90
11152;DHT22;5630;49.342;10.802;2024-01-10T12:23:57;2.50;99.90
11152;DHT22;5630;49.342;10.802;2024-01-10T12:26:23;2.50;99.90
11152;DHT22;5630;49.342;10.802;2024-01-10T12:28:56;2.60;99.90
11152;DHT22;5630;49.342;10.802;2024-01-10T12:31:23;2.60;99.90
11152;DHT22;5630;49.342;10.802;2024-01-10T12:33:49;2.40;99.90
11152;DHT22;5630;49.342;10.802;2024-01-10T12:36:17;2.40;99.90
11152;DHT22;5630;49.342;10.802;2024-01-10T12:38:43;2.40;99.90
11152;DHT22;5630;49.342;10.802;2024-01-10T12:41:15;2.50;99.90
11152;DHT22;5630;49.342;10.802;2024-01-10T12:43:42;2.50;99.90
11152;DHT22;5630;49.342;10.802;2024-01-10T12:46:11;2.20;99.90
11152;DHT22;5630;49.342;10.802;2024-01-10T12:48:41;2.20;99.90
11152;DHT22;5630;49.342;10.802;2024-01-10T12:51:13;2.20;99.90
11152;DHT22;5630;49.342;10.802;2024-01-10T12:53:41;2.20;99.90
11152;DHT22;5630;49.342;10.802;2024-01-10T12:56:07;2.30;99.90
11152;DHT22;5630;49.342;10.802;2024-01-10T12:58:34;2.40;99.90
11152;DHT22;5630;49.342;10.802;2024-01-10T13:01:04;2.30;99.90
11152;DHT22;5630;49.342;10.802;2024-01-10T13:03:30;2.30;99.90
11152;DHT22;5630;49.342;10.802;2024-01-10T13:05:55;2.40;99.90
11152;DHT22;5630;49.342;10.802;2024-01-10T13:08:21;2.40;99.90
11152;DHT22;5630;49.342;10.802;2024-01-10T13:10:47;2.30;99.90
11152;DHT22;5630;49.342;10.802;2024-01-10T13:13:13;2.30;99.90
11152;DHT22;5630;49.342;10.802;2024-01-10T13:15:43;2.30;99.90
11152;DHT22;5630;49.342;10.802;2024-01-10T13:18:09;2.20;99.90
11152;DHT22;5630;49.342;10.802;2024-01-10T13:20:38;2.30;99.90
11152;DHT22;5630;49.342;10.802;2024-01-10T13:23:04;2.30;99.90
11152;DHT22;5630;49.342;10.802;2024-01-10T13:25:30;2.20;99.90
11152;DHT22;5630;49.342;10.802;2024-01-10T13:27:56;2.10;99.90
11152;DHT22;5630;49.342;10.802;2024-01-10T13:30:22;2.00;99.90
11152;DHT22;5630;49.342;10.802;2024-01-10T13:32:48;2.00;99.90
11152;DHT22;5630;49.342;10.802;2024-01-10T13:35:15;2.10;99.90
11152;DHT22;5630;49.342;10.802;2024-01-10T13:37:42;2.10;99.90
11152;DHT22;5630;49.342;10.802;2024-01-10T13:40:08;2.00;99.90
11152;DHT22;5630;49.342;10.802;2024-01-10T13:42:36;2.10;99.90
11152;DHT22;5630;49.342;10.802;2024-01-10T13:45:04;2.10;99.90
11152;DHT22;5630;49.342;10.802;2024-01-10T13:47:31;2.10;99.90
11152;DHT22;5630;49.342;10.802;2024-01-10T13:49:56;2.10;99.90
11152;DHT22;5630;49.342;10.802;2024-01-10T13:52:22;1.90;99.90
11152;DHT22;5630;49.342;10.802;2024-01-10T13:54:47;1.90;99.90
11152;DHT22;5630;49.342;10.802;2024-01-10T13:57:13;1.90;99.90
11152;DHT22;5630;49.342;10.802;2024-01-10T13:59:38;1.80;99.90
11152;DHT22;5630;49.342;10.802;2024-01-10T14:02:04;1.70;99.90
11152;DHT22;5630;49.342;10.802;2024-01-10T14:04:30;1.70;99.90
11152;DHT22;5630;49.342;10.802;2024-01-10T14:06:55;1.70;99.90
11152;DHT22;5630;49.342;10.802;2024-01-10T14:09:21;1.50;99.90
11152;DHT22;5630;49.342;10.802;2024-01-10T14:11:46;1.50;99.90
11152;DHT22;5630;49.342;10.802;2024-01-10T14:14:14;1.50;99.90
11152;DHT22;5630;49.342;10.802;2024-01-10T14:16:39;1.60;99.90
11152;DHT22;5630;49.342;10.802;2024-01-10T14:19:06;1.40;99.90
11152;DHT22;5630;49.342;10.802;2024-01-10T14:21:32;1.40;99.90
11152;DHT22;5630;49.342;10.802;2024-01-10T14:23:57;1.30;99.90
11152;DHT22;5630;49.342;10.802;2024-01-10T14:28:52;1.30;99.90
11152;DHT22;5630;49.342;10.802;2024-01-10T14:31:23;1.30;99.90
11152;DHT22;5630;49.342;10.802;2024-01-10T14:33:49;1.20;99.90
11152;DHT22;5630;49.342;10.802;2024-01-10T14:36:14;1.30;99.90
11152;DHT22;5630;49.342;10.802;2024-01-10T14:38:40;1.20;99.90
11152;DHT22;5630;49.342;10.802;2024-01-10T14:41:07;1.30;99.90
11152;DHT22;5630;49.342;10.802;2024-01-10T14:43:33;1.20;99.90
11152;DHT22;5630;49.342;10.802;2024-01-10T14:45:58;1.20;99.90
11152;DHT22;5630;49.342;10.802;2024-01-10T14:48:24;1.20;99.90
11152;DHT22;5630;49.342;10.802;2024-01-10T14:50:49;1.20;99.90
11152;DHT22;5630;49.342;10.802;2024-01-10T14:53:15;1.10;99.90
11152;DHT22;5630;49.342;10.802;2024-01-10T14:55:41;1.10;99.90
11152;DHT22;5630;49.342;10.802;2024-01-10T14:58:06;1.10;99.90
11152;DHT22;5630;49.342;10.802;2024-01-10T15:00:32;1.10;99.90
11152;DHT22;5630;49.342;10.802;2024-01-10T15:02:58;1.10;99.90
11152;DHT22;5630;49.342;10.802;2024-01-10T15:05:24;1.00;99.90
11152;DHT22;5630;49.342;10.802;2024-01-10T15:07:50;1.00;99.90
11152;DHT22;5630;49.342;10.802;2024-01-10T15:10:16;1.00;99.90
11152;DHT22;5630;49.342;10.802;2024-01-10T15:12:42;1.00;99.90
11152;DHT22;5630;49.342;10.802;2024-01-10T15:15:09;1.00;99.90
11152;DHT22;5630;49.342;10.802;2024-01-10T15:17:35;0.90;99.90
11152;DHT22;5630;49.342;10.802;2024-01-10T15:20:00;1.00;99.90
11152;DHT22;5630;49.342;10.802;2024-01-10T15:22:26;0.90;99.90
11152;DHT22;5630;49.342;10.802;2024-01-10T15:24:52;0.90;99.90
11152;DHT22;5630;49.342;10.802;2024-01-10T15:27:18;0.90;99.90
11152;DHT22;5630;49.342;10.802;2024-01-10T15:29:44;0.80;99.90
11152;DHT22;5630;49.342;10.802;2024-01-10T15:32:09;0.80;99.90
11152;DHT22;5630;49.342;10.802;2024-01-10T15:34:35;0.80;99.90
11152;DHT22;5630;49.342;10.802;2024-01-10T15:37:01;0.70;99.90
11152;DHT22;5630;49.342;10.802;2024-01-10T15:39:26;0.70;99.90
11152;DHT22;5630;49.342;10.802;2024-01-10T15:41:52;0.60;99.90
11152;DHT22;5630;49.342;10.802;2024-01-10T15:44:18;3.00;99.90
11152;DHT22;5630;49.342;10.802;2024-01-10T15:46:44;3.40;99.90